Cedarville, Ohio
Current Conditions -  °F | °C
As of 10:56 PM on Thursday 18 Dec 2014 (Local Time) from KSGH Reporting Station
Overcast Overcast  
Wind Chill: 21°   Ceiling: 1800
Heat Index: 27°   Visibility: 7mi
Dew Point: 23°   Wind: 6mph
Humidity: 84%   Direction: 210°SSW
Pressure: 30.23"   Gusts: NA
Location:  39.74°N, 83.81°W
Report Text: KSGH 190356Z AUTO 21005KT 7SM SCT014 OVC018 M03/M05 A3023 RMK AO2 T10271050 410271038 SLP250
Loading
Personal Weather Stations






























Interactive Weather Map New forecast layout! Learn more

10-Day Weather Forecast

Advertisements
Track Severe Weather on mobile